createdAt,value
2022-11-20T00:01:30.453Z,95692.06
2022-11-20T00:03:59.168Z,95692.28
2022-11-20T00:06:27.290Z,95688.47
2022-11-20T00:08:58.303Z,95689.69
2022-11-20T00:11:27.324Z,95683.13
2022-11-20T00:13:58.253Z,95692.66
2022-11-20T00:16:27.073Z,95690.69
2022-11-20T00:18:54.916Z,95689.88
2022-11-20T00:21:25.217Z,95689.06
2022-11-20T00:23:55.314Z,95687.47
2022-11-20T00:26:24.177Z,95698.22
2022-11-20T00:28:53.187Z,95704.00
2022-11-20T00:31:21.044Z,95701.97
2022-11-20T00:33:48.616Z,95705.75
2022-11-20T00:36:24.280Z,95708.75
2022-11-20T00:38:56.057Z,95705.97
2022-11-20T00:41:23.806Z,95703.38
2022-11-20T00:43:52.577Z,95715.91
2022-11-20T00:46:21.975Z,95721.09
2022-11-20T00:48:49.166Z,95722.50
2022-11-20T00:51:18.917Z,95723.69
2022-11-20T00:53:46.845Z,95728.28
2022-11-20T00:56:16.395Z,95726.69
2022-11-20T00:58:45.676Z,95722.31
2022-11-20T01:01:21.103Z,95732.44
2022-11-20T01:03:50.960Z,95731.28
2022-11-20T01:06:24.570Z,95741.22
2022-11-20T01:08:53.870Z,95746.41
2022-11-20T01:11:29.290Z,95749.97
2022-11-20T01:13:58.004Z,95757.13
2022-11-20T01:16:31.158Z,95755.94
2022-11-20T01:19:00.911Z,95753.13
2022-11-20T01:21:33.990Z,95750.16
2022-11-20T01:24:01.553Z,95745.63
2022-11-20T01:26:31.571Z,95744.03
2022-11-20T01:29:00.150Z,95751.16
2022-11-20T01:31:29.672Z,95753.56
2022-11-20T01:33:59.431Z,95753.34
2022-11-20T01:36:29.415Z,95768.25
2022-11-20T01:38:58.573Z,95769.44
2022-11-20T01:41:45.610Z,95769.44
2022-11-20T01:44:16.220Z,95755.72
2022-11-20T01:47:03.050Z,95757.09
2022-11-20T01:49:42.069Z,95735.22
2022-11-20T01:52:21.171Z,95735.22
2022-11-20T01:54:55.353Z,95731.22
2022-11-20T01:57:26.530Z,95731.63
2022-11-20T02:00:00.930Z,95739.75
2022-11-20T02:02:28.979Z,95744.94
2022-11-20T02:05:02.014Z,95743.16
2022-11-20T02:07:29.144Z,95749.31
2022-11-20T02:09:58.908Z,95738.75
2022-11-20T02:12:44.650Z,95754.09
2022-11-20T02:15:11.851Z,95742.16
2022-11-20T02:17:39.430Z,95737.78
2022-11-20T02:20:07.671Z,95741.97
2022-11-20T02:22:48.991Z,95733.63
2022-11-20T02:25:16.503Z,95728.44
2022-11-20T02:27:43.512Z,95726.66
2022-11-20T02:30:12.191Z,95726.06
2022-11-20T02:32:40.152Z,95723.28
2022-11-20T02:35:27.011Z,95718.09
2022-11-20T02:38:00.471Z,95712.94
2022-11-20T02:40:27.615Z,95718.47
2022-11-20T02:42:58.233Z,95707.16
2022-11-20T02:45:26.300Z,95706.94
2022-11-20T02:47:53.613Z,95711.53
2022-11-20T02:50:21.091Z,95710.53
2022-11-20T02:52:48.131Z,95697.41
2022-11-20T02:55:15.131Z,95704.56
2022-11-20T02:57:42.219Z,95688.84
2022-11-20T03:00:10.331Z,95689.25
2022-11-20T03:02:37.371Z,95680.72
2022-11-20T03:05:04.610Z,95676.94
2022-11-20T03:07:31.799Z,95671.94
2022-11-20T03:09:58.811Z,95666.38
2022-11-20T03:12:25.838Z,95672.97
2022-11-20T03:14:53.488Z,95671.94
2022-11-20T03:17:20.923Z,95672.38
2022-11-20T03:19:48.092Z,95669.38
2022-11-20T03:22:15.200Z,95666.59
2022-11-20T03:24:42.272Z,95672.19
2022-11-20T03:27:09.272Z,95670.59
2022-11-20T03:29:36.912Z,95680.72
2022-11-20T03:32:04.052Z,95681.31
2022-11-20T03:34:31.071Z,95685.91
2022-11-20T03:36:58.290Z,95690.28
2022-11-20T03:39:25.252Z,95691.47
2022-11-20T03:41:52.332Z,95692.44
2022-11-20T03:44:22.611Z,95689.25
2022-11-20T03:46:49.697Z,95692.63
2022-11-20T03:49:16.894Z,95696.66
2022-11-20T03:51:43.871Z,95702.63
2022-11-20T03:54:11.060Z,95691.84
2022-11-20T03:56:39.335Z,95692.25
2022-11-20T03:59:06.296Z,95692.88
2022-11-20T04:01:38.670Z,95690.47
2022-11-20T04:04:06.252Z,95688.66
2022-11-20T04:06:38.745Z,95697.03
2022-11-20T04:09:06.643Z,95696.81
2022-11-20T04:11:36.550Z,95693.03
2022-11-20T04:14:07.094Z,95692.03
2022-11-20T04:16:36.357Z,95692.03
2022-11-20T04:19:06.711Z,95688.22
2022-11-20T04:21:33.952Z,95676.88
2022-11-20T04:24:00.992Z,95668.72
2022-11-20T04:26:29.673Z,95671.31
2022-11-20T04:28:57.672Z,95664.72
2022-11-20T04:31:27.792Z,95664.72
2022-11-20T04:33:55.003Z,95671.69
2022-11-20T04:36:27.311Z,95664.94
2022-11-20T04:38:57.321Z,95660.94
2022-11-20T04:41:30.233Z,95653.97
2022-11-20T04:44:04.542Z,95647.59
2022-11-20T04:46:37.651Z,95640.38
2022-11-20T04:49:05.234Z,95634.22
2022-11-20T04:51:32.611Z,95636.59
2022-11-20T04:53:59.851Z,95630.44
2022-11-20T04:56:26.933Z,95642.38
2022-11-20T04:58:54.219Z,95637.19
2022-11-20T05:01:23.993Z,95638.41
2022-11-20T05:03:51.475Z,95639.41
2022-11-20T05:06:20.831Z,95643.59
2022-11-20T05:08:48.072Z,95653.16
2022-11-20T05:11:17.680Z,95645.22
2022-11-20T05:13:45.028Z,95650.81
2022-11-20T05:16:18.518Z,95646.84
2022-11-20T05:18:46.989Z,95646.28
2022-11-20T05:21:14.534Z,95639.09
2022-11-20T05:23:42.995Z,95642.47
2022-11-20T05:26:15.311Z,95631.34
2022-11-20T05:28:42.514Z,95630.53
2022-11-20T05:31:14.991Z,95631.38
2022-11-20T05:33:43.374Z,95630.38
2022-11-20T05:36:11.712Z,95642.72
2022-11-20T05:38:39.401Z,95646.06
2022-11-20T05:41:24.412Z,95640.50
2022-11-20T05:43:52.301Z,95638.31
2022-11-20T05:46:27.843Z,95640.47
2022-11-20T05:48:56.979Z,95648.81
2022-11-20T05:51:24.851Z,95656.38
2022-11-20T05:53:51.830Z,95651.38
2022-11-20T05:56:20.715Z,95652.75
2022-11-20T05:58:48.490Z,95649.16
2022-11-20T06:01:21.880Z,95658.13
2022-11-20T06:03:50.612Z,95654.72
2022-11-20T06:06:18.971Z,95656.13
2022-11-20T06:08:46.291Z,95656.69
2022-11-20T06:11:15.196Z,95655.69
2022-11-20T06:13:43.128Z,95661.47
2022-11-20T06:16:11.811Z,95662.25
2022-11-20T06:18:39.406Z,95671.41
2022-11-20T06:21:12.078Z,95673.00
2022-11-20T06:23:40.571Z,95676.00
2022-11-20T06:26:10.591Z,95678.19
2022-11-20T06:28:37.580Z,95680.19
2022-11-20T06:31:05.671Z,95676.38
2022-11-20T06:33:32.670Z,95688.53
2022-11-20T06:36:05.699Z,95689.31
2022-11-20T06:38:36.159Z,95688.53
2022-11-20T06:41:05.855Z,95682.00
2022-11-20T06:43:32.991Z,95696.72
2022-11-20T06:46:00.501Z,95700.91
2022-11-20T06:48:28.952Z,95700.50
2022-11-20T06:50:56.190Z,95697.72
2022-11-20T06:53:24.251Z,95697.13
2022-11-20T06:55:52.751Z,95709.06
2022-11-20T06:58:20.035Z,95698.72
2022-11-20T07:00:47.284Z,95702.09
2022-11-20T07:03:15.574Z,95709.06
2022-11-20T07:05:42.631Z,95706.88
2022-11-20T07:08:09.718Z,95704.50
2022-11-20T07:10:37.336Z,95716.16
2022-11-20T07:13:04.951Z,95721.34
2022-11-20T07:15:32.112Z,95724.34
2022-11-20T07:18:02.812Z,95718.97
2022-11-20T07:20:30.034Z,95722.91
2022-11-20T07:23:00.691Z,95721.53
2022-11-20T07:25:29.351Z,95721.88
2022-11-20T07:27:59.731Z,95726.66
2022-11-20T07:30:31.693Z,95722.66
2022-11-20T07:32:59.231Z,95729.63
2022-11-20T07:35:26.471Z,95730.56
2022-11-20T07:37:53.452Z,95729.34
2022-11-20T07:40:21.199Z,95727.53
2022-11-20T07:42:53.153Z,95739.06
2022-11-20T07:45:21.635Z,95731.88
2022-11-20T07:47:49.351Z,95732.84
2022-11-20T07:50:17.412Z,95727.63
2022-11-20T07:52:44.582Z,95727.56
2022-11-20T07:55:12.014Z,95724.94
2022-11-20T07:57:38.985Z,95726.72
2022-11-20T08:00:08.470Z,95736.66
2022-11-20T08:02:42.723Z,95736.00
2022-11-20T08:05:10.347Z,95735.75
2022-11-20T08:07:41.437Z,95743.72
2022-11-20T08:10:09.963Z,95741.25
2022-11-20T08:12:56.392Z,95740.03
2022-11-20T08:15:23.351Z,95748.78
2022-11-20T08:21:01.433Z,95759.44
2022-11-20T08:23:34.511Z,95757.66
2022-11-20T08:26:02.251Z,95760.81
2022-11-20T08:28:29.466Z,95759.59
2022-11-20T08:31:03.772Z,95769.78
2022-11-20T08:33:31.177Z,95769.97
2022-11-20T08:36:02.717Z,95770.50
2022-11-20T08:38:31.171Z,95767.25
2022-11-20T08:41:21.573Z,95772.59
2022-11-20T08:43:49.052Z,95772.31
2022-11-20T08:46:16.278Z,95784.22
2022-11-20T08:48:43.751Z,95787.78
2022-11-20T08:51:12.076Z,95782.75
2022-11-20T08:53:40.091Z,95781.88
2022-11-20T08:56:07.472Z,95783.22
2022-11-20T08:58:54.923Z,95780.81
2022-11-20T09:01:23.049Z,95780.72
2022-11-20T09:03:50.894Z,95782.88
2022-11-20T09:06:19.412Z,95781.81
2022-11-20T09:08:46.531Z,95776.59
2022-11-20T09:11:13.472Z,95782.75
2022-11-20T09:13:40.712Z,95782.09
2022-11-20T09:16:09.751Z,95790.59
2022-11-20T09:18:40.011Z,95785.19
2022-11-20T09:21:12.278Z,95782.50
2022-11-20T09:23:40.472Z,95794.84
2022-11-20T09:26:13.045Z,95793.75
2022-11-20T09:28:40.352Z,95790.28
2022-11-20T09:31:09.715Z,95786.03
2022-11-20T09:33:37.372Z,95791.34
2022-11-20T09:36:05.066Z,95785.97
2022-11-20T09:38:33.179Z,95782.34
2022-11-20T09:41:06.231Z,95784.75
2022-11-20T09:44:15.390Z,95776.94
2022-11-20T09:46:55.011Z,95773.44
2022-11-20T09:49:46.290Z,95771.59
2022-11-20T09:52:40.761Z,95774.09
2022-11-20T09:55:12.551Z,95768.59
2022-11-20T09:57:47.354Z,95765.75
2022-11-20T10:00:16.568Z,95760.31
2022-11-20T10:03:06.732Z,95759.38
2022-11-20T10:05:48.614Z,95752.59
2022-11-20T10:08:33.320Z,95758.75
2022-11-20T10:11:16.912Z,95755.53
2022-11-20T10:14:05.831Z,95754.72
2022-11-20T10:16:48.052Z,95749.28
2022-11-20T10:19:39.831Z,95749.84
2022-11-20T10:22:28.631Z,95749.00
2022-11-20T10:25:14.312Z,95741.53
2022-11-20T10:28:16.459Z,95739.19
2022-11-20T10:30:47.047Z,95735.75
2022-11-20T10:33:22.522Z,95739.31
2022-11-20T10:36:17.599Z,95741.16
2022-11-20T10:38:50.832Z,95732.94
2022-11-20T10:41:28.163Z,95745.69
2022-11-20T10:44:06.092Z,95738.56
2022-11-20T10:46:44.331Z,95737.97
2022-11-20T10:49:15.691Z,95737.78
2022-11-20T10:52:03.358Z,95740.84
2022-11-20T10:54:39.611Z,95736.50
2022-11-20T10:57:22.780Z,95731.81
2022-11-20T11:00:10.456Z,95730.25
2022-11-20T11:02:48.672Z,95721.19
2022-11-20T11:05:21.491Z,95720.19
2022-11-20T11:07:52.292Z,95731.53
2022-11-20T11:10:24.135Z,95731.22
2022-11-20T11:12:51.111Z,95724.16
2022-11-20T11:15:39.049Z,95723.13
2022-11-20T11:18:06.372Z,95725.63
2022-11-20T11:20:33.811Z,95729.28
2022-11-20T11:23:01.700Z,95724.66
2022-11-20T11:25:30.359Z,95725.25
2022-11-20T11:28:03.497Z,95726.41
2022-11-20T11:30:41.451Z,95723.13
2022-11-20T11:33:13.057Z,95727.66
2022-11-20T11:35:49.955Z,95726.28
2022-11-20T11:38:28.552Z,95722.44
2022-11-20T11:40:57.711Z,95725.22
2022-11-20T11:43:46.712Z,95728.91
2022-11-20T11:46:34.873Z,95721.91
2022-11-20T11:49:22.650Z,95719.91
2022-11-20T11:51:52.811Z,95724.81
2022-11-20T11:54:49.771Z,95711.75
2022-11-20T11:57:39.120Z,95711.91
2022-11-20T12:00:12.891Z,95707.59
2022-11-20T12:13:28.512Z,95712.72
2022-11-20T12:15:56.093Z,95717.19
2022-11-20T12:18:24.056Z,95717.84
2022-11-20T12:21:07.651Z,95718.00
2022-11-20T12:24:31.491Z,95709.03
2022-11-20T12:27:25.772Z,95709.34
2022-11-20T12:30:21.653Z,95704.72
2022-11-20T12:33:38.659Z,95699.75
2022-11-20T12:36:31.700Z,95700.13
2022-11-20T12:39:42.263Z,95699.38
2022-11-20T12:43:15.319Z,95693.19
2022-11-20T12:46:04.532Z,95695.56
2022-11-20T12:48:52.842Z,95694.28
2022-11-20T12:51:46.631Z,95688.88
2022-11-20T12:54:47.512Z,95696.94
2022-11-20T12:57:20.151Z,95693.44
2022-11-20T13:00:08.949Z,95686.38
2022-11-20T13:02:58.351Z,95686.44
2022-11-20T13:05:51.411Z,95685.81
2022-11-20T13:08:28.912Z,95688.34
2022-11-20T13:11:11.634Z,95692.06
2022-11-20T13:14:16.773Z,95691.84
2022-11-20T13:16:52.738Z,95687.13
2022-11-20T13:19:20.192Z,95690.22
2022-11-20T13:21:52.998Z,95687.53
2022-11-20T13:24:20.174Z,95690.09
2022-11-20T13:26:48.391Z,95682.72
2022-11-20T13:29:20.032Z,95698.34
2022-11-20T13:31:50.254Z,95696.94
2022-11-20T13:34:28.395Z,95684.06
2022-11-20T13:36:56.831Z,95687.66
2022-11-20T13:39:32.668Z,95680.56
2022-11-20T13:42:01.253Z,95680.34
2022-11-20T13:44:36.753Z,95680.53
2022-11-20T13:47:03.931Z,95673.16
2022-11-20T13:49:35.492Z,95679.69
2022-11-20T13:52:24.171Z,95676.56
2022-11-20T13:54:53.093Z,95681.75
2022-11-20T13:57:36.591Z,95673.41
2022-11-20T14:00:21.592Z,95673.56
2022-11-20T14:03:17.203Z,95677.38
2022-11-20T14:06:01.271Z,95680.66
2022-11-20T14:08:50.191Z,95679.25
2022-11-20T14:11:22.700Z,95678.00
2022-11-20T14:14:00.652Z,95685.16
2022-11-20T14:16:31.292Z,95677.31
2022-11-20T14:19:18.035Z,95673.38
2022-11-20T14:21:45.070Z,95677.25
2022-11-20T14:24:14.471Z,95678.97
2022-11-20T14:26:45.814Z,95671.56
2022-11-20T14:29:37.731Z,95662.34
2022-11-20T14:32:05.591Z,95664.44
2022-11-20T14:34:36.911Z,95662.16
2022-11-20T14:37:09.515Z,95666.28
2022-11-20T14:39:43.001Z,95662.72
2022-11-20T14:42:23.491Z,95664.41
2022-11-20T14:44:52.071Z,95665.50
2022-11-20T14:47:23.051Z,95668.28
2022-11-20T14:49:53.212Z,95662.47
2022-11-20T14:52:25.641Z,95656.63
2022-11-20T14:54:55.017Z,95663.81
2022-11-20T14:57:27.893Z,95668.16
2022-11-20T15:00:20.011Z,95667.84
2022-11-20T15:02:52.680Z,95670.88
2022-11-20T15:05:22.251Z,95682.50
2022-11-20T15:07:52.712Z,95681.06
2022-11-20T15:10:28.393Z,95680.44
2022-11-20T15:13:01.225Z,95683.34
2022-11-20T15:15:36.211Z,95685.22
2022-11-20T15:18:05.631Z,95683.22
2022-11-20T15:20:34.351Z,95680.22
2022-11-20T15:23:01.472Z,95678.53
2022-11-20T15:25:30.971Z,95682.06
2022-11-20T15:27:58.372Z,95681.44
2022-11-20T15:30:25.939Z,95684.94
2022-11-20T15:32:52.930Z,95686.13
2022-11-20T15:35:20.124Z,95685.22
2022-11-20T15:37:47.319Z,95687.38
2022-11-20T15:40:14.351Z,95688.78
2022-11-20T15:43:01.395Z,95691.97
2022-11-20T15:45:31.371Z,95685.50
2022-11-20T15:47:58.631Z,95690.81
2022-11-20T15:50:33.511Z,95686.19
2022-11-20T15:53:01.847Z,95687.09
2022-11-20T15:55:32.052Z,95688.47
2022-11-20T15:57:59.345Z,95689.81
2022-11-20T16:00:26.511Z,95690.72
2022-11-20T16:02:53.811Z,95697.38
2022-11-20T16:05:21.094Z,95702.91
2022-11-20T16:07:48.253Z,95715.81
2022-11-20T16:10:15.372Z,95710.25
2022-11-20T16:13:00.872Z,95710.66
2022-11-20T16:15:46.192Z,95717.75
2022-11-20T16:18:17.992Z,95723.03
2022-11-20T16:20:47.192Z,95718.69
2022-11-20T16:23:14.573Z,95712.78
2022-11-20T16:25:43.850Z,95721.03
2022-11-20T16:28:17.435Z,95726.44
2022-11-20T16:30:46.232Z,95721.69
2022-11-20T16:33:15.694Z,95725.16
2022-11-20T16:35:42.819Z,95717.81
2022-11-20T16:38:10.550Z,95717.25
2022-11-20T16:40:37.871Z,95714.28
2022-11-20T16:43:15.631Z,95721.50
2022-11-20T16:45:44.091Z,95718.53
2022-11-20T16:48:16.238Z,95719.00
2022-11-20T16:50:51.359Z,95720.00
2022-11-20T16:53:23.195Z,95714.44
2022-11-20T16:55:51.231Z,95715.22
2022-11-20T16:58:18.291Z,95712.72
2022-11-20T17:00:51.372Z,95712.72
2022-11-20T17:03:19.273Z,95701.03
2022-11-20T17:05:46.339Z,95702.03
2022-11-20T17:08:13.331Z,95695.84
2022-11-20T17:10:40.494Z,95701.69
2022-11-20T17:13:07.472Z,95696.94
2022-11-20T17:15:34.626Z,95700.31
2022-11-20T17:18:03.753Z,95700.53
2022-11-20T17:20:32.532Z,95699.19
2022-11-20T17:22:59.930Z,95701.97
2022-11-20T17:25:26.884Z,95698.00
2022-11-20T17:27:54.851Z,95696.44
2022-11-20T17:30:22.381Z,95701.84
2022-11-20T17:32:50.632Z,95695.84
2022-11-20T17:35:20.706Z,95691.66
2022-11-20T17:37:47.711Z,95689.28
2022-11-20T17:40:16.231Z,95698.53
2022-11-20T17:42:45.252Z,95699.75
2022-11-20T17:45:12.719Z,95692.63
2022-11-20T17:47:40.511Z,95691.44
2022-11-20T17:50:09.538Z,95686.13
2022-11-20T17:52:39.251Z,95691.56
2022-11-20T17:55:07.732Z,95685.84
2022-11-20T17:57:55.572Z,95681.72
2022-11-20T18:00:23.991Z,95681.78
2022-11-20T18:02:51.031Z,95672.84
2022-11-20T18:05:18.033Z,95680.03
2022-11-20T18:07:45.714Z,95671.13
2022-11-20T18:10:13.691Z,95669.78
2022-11-20T18:12:51.307Z,95668.78
2022-11-20T18:15:26.751Z,95664.06
2022-11-20T18:17:53.711Z,95655.31
2022-11-20T18:20:29.391Z,95652.91
2022-11-20T18:22:58.367Z,95650.91
2022-11-20T18:25:25.493Z,95640.34
2022-11-20T18:27:52.713Z,95640.97
2022-11-20T18:30:20.234Z,95645.13
2022-11-20T18:32:47.291Z,95641.00
2022-11-20T18:35:14.371Z,95652.19
2022-11-20T18:37:41.551Z,95644.66
2022-11-20T18:40:09.551Z,95640.97
2022-11-20T18:43:00.126Z,95643.78
2022-11-20T18:45:27.530Z,95646.41
2022-11-20T18:47:54.453Z,95630.53
2022-11-20T18:50:22.339Z,95643.31
2022-11-20T18:52:49.299Z,95642.56
2022-11-20T18:55:23.180Z,95646.75
2022-11-20T18:57:50.599Z,95639.78
2022-11-20T19:00:18.556Z,95635.84
2022-11-20T19:02:47.043Z,95642.38
2022-11-20T19:05:15.269Z,95643.78
2022-11-20T19:07:42.688Z,95644.97
2022-11-20T19:10:10.078Z,95645.22
2022-11-20T19:12:37.221Z,95650.00
2022-11-20T19:15:04.756Z,95656.81
2022-11-20T19:17:33.884Z,95651.06
2022-11-20T19:20:01.199Z,95657.03
2022-11-20T19:22:28.120Z,95664.00
2022-11-20T19:24:55.089Z,95661.81
2022-11-20T19:27:22.069Z,95654.50
2022-11-20T19:29:49.085Z,95656.69
2022-11-20T19:32:16.519Z,95658.91
2022-11-20T19:34:43.980Z,95665.91
2022-11-20T19:37:11.597Z,95661.13
2022-11-20T19:39:38.679Z,95656.56
2022-11-20T19:42:05.757Z,95653.41
2022-11-20T19:44:33.224Z,95650.22
2022-11-20T19:47:00.960Z,95652.78
2022-11-20T19:49:27.891Z,95652.44
2022-11-20T19:51:55.081Z,95643.47
2022-11-20T19:54:22.242Z,95639.34
2022-11-20T19:56:49.811Z,95649.50
2022-11-20T19:59:16.910Z,95643.19
2022-11-20T20:01:44.032Z,95645.56
2022-11-20T20:04:11.139Z,95646.19
2022-11-20T20:06:39.240Z,95654.13
2022-11-20T20:09:08.743Z,95656.34
2022-11-20T20:11:36.919Z,95654.75
2022-11-20T20:14:06.490Z,95653.00
2022-11-20T20:16:35.401Z,95665.31
2022-11-20T20:19:04.557Z,95657.75
2022-11-20T20:21:33.500Z,95662.13
2022-11-20T20:24:01.182Z,95659.16
2022-11-20T20:26:31.079Z,95663.53
2022-11-20T20:28:58.729Z,95659.97
2022-11-20T20:31:27.915Z,95657.56
2022-11-20T20:33:55.221Z,95656.59
2022-11-20T20:36:23.529Z,95655.38
2022-11-20T20:38:56.358Z,95645.44
2022-11-20T20:41:25.736Z,95650.22
2022-11-20T20:44:29.298Z,95648.03
2022-11-20T20:46:56.720Z,95638.69
2022-11-20T20:49:23.841Z,95636.94
2022-11-20T20:51:50.898Z,95634.72
2022-11-20T20:54:17.941Z,95638.13
2022-11-20T20:56:44.989Z,95635.94
2022-11-20T20:59:11.919Z,95631.94
2022-11-20T21:01:38.917Z,95630.38
2022-11-20T21:04:06.045Z,95629.97
2022-11-20T21:06:33.089Z,95629.59
2022-11-20T21:09:00.000Z,95625.59
2022-11-20T21:11:27.021Z,95633.53
2022-11-20T21:13:54.241Z,95631.75
2022-11-20T21:16:25.239Z,95630.78
2022-11-20T21:18:52.161Z,95626.59
2022-11-20T21:21:38.161Z,95632.16
2022-11-20T21:24:05.510Z,95630.78
2022-11-20T21:26:32.399Z,95630.56
2022-11-20T21:28:59.541Z,95637.13
2022-11-20T21:31:27.147Z,95637.13
2022-11-20T21:33:55.784Z,95632.94
2022-11-20T21:36:29.043Z,95632.34
2022-11-20T21:38:57.313Z,95641.47
2022-11-20T21:41:24.459Z,95633.91
2022-11-20T21:44:16.278Z,95640.69
2022-11-20T21:46:42.600Z,95636.88
2022-11-20T21:49:10.711Z,95646.22
2022-11-20T21:51:37.889Z,95636.31
2022-11-20T21:54:05.103Z,95635.50
2022-11-20T21:56:32.199Z,95635.50
2022-11-20T21:58:59.182Z,95631.34
2022-11-20T22:01:30.746Z,95636.50
2022-11-20T22:04:02.932Z,95644.44
2022-11-20T22:06:32.793Z,95641.84
2022-11-20T22:09:00.620Z,95650.38
2022-11-20T22:11:27.886Z,95650.00
2022-11-20T22:14:13.321Z,95641.84
2022-11-20T22:16:40.360Z,95637.47
2022-11-20T22:19:07.960Z,95635.50
2022-11-20T22:21:35.573Z,95641.84
2022-11-20T22:24:02.622Z,95632.31
2022-11-20T22:26:34.951Z,95627.16
2022-11-20T22:29:04.599Z,95625.19
2022-11-20T22:31:32.150Z,95629.94
2022-11-20T22:34:02.009Z,95626.97
2022-11-20T22:36:31.019Z,95625.38
2022-11-20T22:38:58.982Z,95632.13
2022-11-20T22:41:29.419Z,95620.19
2022-11-20T22:43:58.819Z,95615.22
2022-11-20T22:46:27.469Z,95607.88
2022-11-20T22:48:56.727Z,95615.03
2022-11-20T22:51:29.419Z,95607.47
2022-11-20T22:53:56.629Z,95601.72
2022-11-20T22:56:24.158Z,95604.50
2022-11-20T22:58:52.549Z,95599.94
2022-11-20T23:01:20.539Z,95589.00
2022-11-20T23:03:49.683Z,95589.00
2022-11-20T23:06:18.794Z,95593.59
2022-11-20T23:08:46.599Z,95598.16
2022-11-20T23:11:19.091Z,95592.19
2022-11-20T23:13:47.019Z,95589.19
2022-11-20T23:16:20.099Z,95581.44
2022-11-20T23:18:47.269Z,95583.81
2022-11-20T23:21:17.199Z,95581.44
2022-11-20T23:23:48.129Z,95583.59
2022-11-20T23:26:16.860Z,95586.56
2022-11-20T23:28:44.492Z,95590.91
2022-11-20T23:31:13.211Z,95588.13
2022-11-20T23:33:41.720Z,95594.09
2022-11-20T23:36:09.303Z,95597.47
2022-11-20T23:38:36.241Z,95593.09
2022-11-20T23:41:04.348Z,95590.72
2022-11-20T23:43:31.300Z,95589.28
2022-11-20T23:46:00.280Z,95586.34
2022-11-20T23:48:30.150Z,95582.56
2022-11-20T23:50:57.505Z,95577.22
2022-11-20T23:53:25.876Z,95572.28
2022-11-20T23:55:56.539Z,95571.09
2022-11-20T23:58:24.890Z,95567.72
